createdAt,value
2019-01-15T00:01:32.452Z,4.80
2019-01-15T00:04:02.508Z,4.30
2019-01-15T00:06:32.051Z,5.22
2019-01-15T00:09:01.593Z,5.17
2019-01-15T00:11:30.748Z,4.20
2019-01-15T00:14:00.042Z,5.50
2019-01-15T00:16:29.346Z,4.73
2019-01-15T00:18:58.790Z,4.87
2019-01-15T00:21:28.079Z,5.42
2019-01-15T00:23:57.602Z,4.60
2019-01-15T00:26:26.814Z,5.55
2019-01-15T00:28:56.630Z,5.20
2019-01-15T00:31:26.056Z,5.37
2019-01-15T00:33:55.307Z,5.25
2019-01-15T00:36:24.490Z,5.30
2019-01-15T00:38:53.690Z,5.53
2019-01-15T00:41:22.851Z,5.37
2019-01-15T00:43:52.470Z,5.72
2019-01-15T00:46:21.631Z,5.63
2019-01-15T00:48:51.843Z,5.50
2019-01-15T00:51:21.002Z,5.73
2019-01-15T00:53:50.299Z,5.87
2019-01-15T00:56:19.423Z,5.93
2019-01-15T00:58:49.115Z,5.10
2019-01-15T01:01:18.365Z,5.73
2019-01-15T01:03:47.550Z,6.60
2019-01-15T01:06:17.098Z,5.92
2019-01-15T01:08:46.348Z,6.13
2019-01-15T01:11:15.472Z,5.37
2019-01-15T01:13:45.010Z,6.00
2019-01-15T01:16:14.127Z,4.80
2019-01-15T01:18:43.252Z,6.00
2019-01-15T01:21:12.787Z,4.77
2019-01-15T01:23:45.983Z,4.95
2019-01-15T01:26:15.146Z,4.35
2019-01-15T01:28:44.608Z,4.53
2019-01-15T01:31:13.837Z,4.53
2019-01-15T01:33:43.024Z,4.47
2019-01-15T01:36:12.369Z,5.08
2019-01-15T01:38:41.470Z,4.80
2019-01-15T01:41:11.312Z,5.00
2019-01-15T01:43:43.817Z,5.17
2019-01-15T01:46:13.326Z,5.33
2019-01-15T01:48:43.690Z,4.92
2019-01-15T01:51:13.122Z,4.60
2019-01-15T01:53:43.874Z,4.80
2019-01-15T01:56:13.022Z,4.20
2019-01-15T01:58:42.137Z,4.42
2019-01-15T02:01:11.271Z,5.03
2019-01-15T02:03:40.422Z,5.57
2019-01-15T02:06:09.549Z,4.70
2019-01-15T02:08:38.687Z,4.93
2019-01-15T02:11:07.840Z,3.67
2019-01-15T02:13:36.946Z,4.60
2019-01-15T02:16:06.452Z,4.40
2019-01-15T02:18:35.976Z,4.00
2019-01-15T02:21:05.472Z,4.03
2019-01-15T02:23:34.642Z,3.80
2019-01-15T02:26:04.179Z,4.00
2019-01-15T02:28:33.597Z,4.30
2019-01-15T02:31:03.035Z,4.40
2019-01-15T02:33:32.228Z,4.67
2019-01-15T02:36:01.412Z,4.80
2019-01-15T02:38:30.540Z,5.03
2019-01-15T02:40:59.773Z,4.43
2019-01-15T02:43:28.949Z,4.83
2019-01-15T02:45:58.170Z,4.80
2019-01-15T02:48:27.355Z,5.30
2019-01-15T02:50:56.511Z,4.57
2019-01-15T02:53:25.769Z,4.60
2019-01-15T02:55:55.274Z,4.75
2019-01-15T02:58:24.732Z,4.67
2019-01-15T03:00:53.898Z,5.10
2019-01-15T03:03:23.387Z,4.00
2019-01-15T03:05:52.946Z,4.33
2019-01-15T03:08:22.185Z,4.33
2019-01-15T03:10:51.473Z,4.33
2019-01-15T03:13:20.759Z,4.20
2019-01-15T03:15:50.275Z,4.40
2019-01-15T03:18:19.448Z,3.97
2019-01-15T03:20:48.648Z,4.10
2019-01-15T03:23:18.164Z,4.00
2019-01-15T03:25:47.299Z,4.20
2019-01-15T03:28:16.587Z,3.30
2019-01-15T03:30:45.736Z,3.87
2019-01-15T03:33:14.923Z,3.12
2019-01-15T03:35:44.554Z,2.27
2019-01-15T03:38:13.692Z,3.60
2019-01-15T03:40:43.277Z,3.40
2019-01-15T03:43:12.747Z,3.10
2019-01-15T03:45:42.053Z,2.37
2019-01-15T03:48:11.178Z,2.47
2019-01-15T03:50:40.597Z,2.70
2019-01-15T03:53:10.528Z,2.47
2019-01-15T03:55:40.111Z,2.30
2019-01-15T03:58:09.276Z,4.05
2019-01-15T04:00:38.377Z,2.27
2019-01-15T04:03:07.927Z,3.20
2019-01-15T04:05:37.055Z,2.27
2019-01-15T04:08:06.164Z,3.12
2019-01-15T04:10:35.871Z,3.30
2019-01-15T04:13:11.263Z,2.10
2019-01-15T04:15:36.305Z,2.13
2019-01-15T04:18:05.841Z,2.53
2019-01-15T04:20:35.022Z,2.58
2019-01-15T04:23:04.349Z,2.67
2019-01-15T04:25:34.110Z,2.60
2019-01-15T04:28:03.334Z,2.08
2019-01-15T04:30:32.490Z,2.67
2019-01-15T04:33:01.774Z,1.80
2019-01-15T04:35:30.979Z,1.93
2019-01-15T04:38:00.471Z,2.03
2019-01-15T04:40:29.595Z,3.43
2019-01-15T04:42:58.726Z,1.90
2019-01-15T04:45:27.893Z,2.30
2019-01-15T04:47:56.996Z,1.98
2019-01-15T04:50:26.324Z,2.20
2019-01-15T04:53:04.530Z,1.70
2019-01-15T04:55:34.040Z,2.30
2019-01-15T04:58:03.212Z,2.00
2019-01-15T05:00:32.633Z,2.20
2019-01-15T05:03:04.832Z,2.17
2019-01-15T05:05:34.399Z,2.47
2019-01-15T05:08:04.041Z,2.08
2019-01-15T05:10:33.187Z,1.70
2019-01-15T05:13:02.652Z,2.20
2019-01-15T05:15:31.780Z,1.98
2019-01-15T05:18:00.940Z,2.10
2019-01-15T05:20:30.135Z,2.40
2019-01-15T05:22:59.269Z,2.40
2019-01-15T05:25:28.734Z,2.60
2019-01-15T05:27:57.955Z,2.37
2019-01-15T05:30:29.202Z,2.30
2019-01-15T05:32:58.638Z,2.50
2019-01-15T05:35:27.785Z,2.00
2019-01-15T05:37:57.416Z,2.47
2019-01-15T05:40:26.551Z,2.87
2019-01-15T05:42:55.762Z,1.95
2019-01-15T05:45:32.359Z,2.70
2019-01-15T05:48:07.159Z,2.53
2019-01-15T05:51:06.983Z,2.50
2019-01-15T05:53:39.408Z,2.13
2019-01-15T05:56:09.556Z,2.33
2019-01-15T05:58:39.510Z,3.00
2019-01-15T06:01:08.893Z,3.27
2019-01-15T06:03:38.027Z,3.17
2019-01-15T06:06:07.720Z,2.58
2019-01-15T06:08:37.329Z,2.60
2019-01-15T06:11:07.208Z,3.70
2019-01-15T06:13:42.606Z,3.20
2019-01-15T06:16:07.679Z,3.23
2019-01-15T06:18:36.946Z,3.40
2019-01-15T06:21:06.408Z,3.45
2019-01-15T06:23:35.828Z,3.80
2019-01-15T06:26:05.795Z,3.50
2019-01-15T06:28:35.412Z,3.67
2019-01-15T06:31:05.297Z,3.93
2019-01-15T06:33:34.539Z,3.57
2019-01-15T06:36:04.652Z,4.47
2019-01-15T06:38:33.976Z,3.50
2019-01-15T06:41:04.551Z,3.37
2019-01-15T06:43:33.850Z,3.70
2019-01-15T06:46:03.385Z,3.60
2019-01-15T06:48:32.652Z,5.27
2019-01-15T06:51:01.890Z,4.30
2019-01-15T06:53:30.989Z,4.70
2019-01-15T06:56:00.261Z,4.60
2019-01-15T06:58:29.545Z,5.67
2019-01-15T07:00:58.738Z,5.40
2019-01-15T07:03:27.932Z,6.03
2019-01-15T07:05:57.137Z,4.87
2019-01-15T07:08:26.572Z,5.50
2019-01-15T07:10:55.722Z,3.83
2019-01-15T07:13:25.306Z,4.03
2019-01-15T07:15:55.383Z,4.43
2019-01-15T07:18:24.945Z,5.20
2019-01-15T07:20:54.103Z,5.00
2019-01-15T07:23:23.941Z,4.83
2019-01-15T07:25:53.125Z,3.95
2019-01-15T07:28:22.322Z,4.37
2019-01-15T07:30:53.751Z,4.67
2019-01-15T07:33:27.519Z,4.83
2019-01-15T07:35:56.743Z,5.33
2019-01-15T07:38:26.164Z,4.97
2019-01-15T07:40:56.031Z,5.00
2019-01-15T07:43:25.527Z,5.25
2019-01-15T07:45:54.670Z,4.53
2019-01-15T07:48:23.860Z,5.13
2019-01-15T07:50:53.002Z,5.37
2019-01-15T07:53:22.195Z,5.20
2019-01-15T07:55:51.343Z,4.70
2019-01-15T07:58:20.805Z,5.08
2019-01-15T08:00:49.955Z,4.90
2019-01-15T08:03:19.130Z,5.60
2019-01-15T08:05:49.140Z,5.60
2019-01-15T08:08:18.274Z,5.07
2019-01-15T08:10:47.484Z,5.37
2019-01-15T08:13:16.967Z,5.20
2019-01-15T08:15:46.116Z,5.23
2019-01-15T08:18:15.320Z,5.08
2019-01-15T08:20:44.447Z,5.47
2019-01-15T08:23:13.920Z,4.67
2019-01-15T08:25:43.047Z,5.57
2019-01-15T08:28:12.374Z,5.22
2019-01-15T08:30:42.107Z,5.43
2019-01-15T08:33:11.525Z,5.93
2019-01-15T08:35:41.052Z,5.93
2019-01-15T08:38:10.291Z,5.57
2019-01-15T08:40:39.523Z,5.23
2019-01-15T08:43:08.723Z,5.12
2019-01-15T08:45:37.983Z,6.55
2019-01-15T08:48:23.385Z,5.90
2019-01-15T08:50:53.724Z,4.73
2019-01-15T08:53:24.043Z,4.33
2019-01-15T08:55:56.812Z,5.42
2019-01-15T08:58:26.447Z,4.50
2019-01-15T09:00:55.834Z,4.60
2019-01-15T09:03:25.326Z,5.00
2019-01-15T09:05:54.836Z,5.00
2019-01-15T09:08:23.953Z,4.87
2019-01-15T09:10:53.188Z,5.53
2019-01-15T09:13:22.780Z,4.97
2019-01-15T09:15:52.332Z,5.07
2019-01-15T09:18:21.822Z,4.30
2019-01-15T09:20:51.347Z,5.30
2019-01-15T09:23:20.503Z,5.62
2019-01-15T09:25:49.752Z,5.50
2019-01-15T09:28:18.930Z,5.70
2019-01-15T09:30:48.183Z,4.72
2019-01-15T09:33:17.743Z,5.80
2019-01-15T09:35:47.530Z,4.70
2019-01-15T09:38:16.819Z,5.10
2019-01-15T09:40:46.006Z,4.87
2019-01-15T09:43:15.162Z,5.30
2019-01-15T09:45:44.442Z,5.77
2019-01-15T09:48:19.326Z,5.40
2019-01-15T09:50:48.507Z,5.65
2019-01-15T09:53:17.895Z,5.67
2019-01-15T09:55:47.507Z,5.77
2019-01-15T09:58:16.779Z,4.80
2019-01-15T10:00:45.958Z,4.97
2019-01-15T10:03:15.088Z,6.00
2019-01-15T10:05:44.365Z,5.33
2019-01-15T10:08:13.718Z,5.40
2019-01-15T11:25:11.337Z,6.73
2019-01-15T11:27:41.328Z,6.27
2019-01-15T11:30:10.651Z,7.10
2019-01-15T11:41:03.131Z,6.62
2019-01-15T11:43:32.831Z,7.43
2019-01-15T11:46:02.057Z,7.03
2019-01-15T11:48:31.194Z,7.80
2019-01-15T11:51:00.680Z,6.47
2019-01-15T11:53:29.973Z,7.95
2019-01-15T11:55:59.485Z,8.30
2019-01-15T11:58:29.047Z,7.93
2019-01-15T12:01:07.686Z,7.80
2019-01-15T12:04:07.945Z,6.80
2019-01-15T12:06:59.555Z,7.00
2019-01-15T12:09:47.739Z,7.50
2019-01-15T12:12:34.524Z,6.90
2019-01-15T12:15:12.615Z,7.60
2019-01-15T12:17:59.032Z,7.17
2019-01-15T12:20:45.738Z,7.33
2019-01-15T12:23:49.117Z,7.97
2019-01-15T12:26:37.328Z,6.80
2019-01-15T12:29:24.699Z,7.03
2019-01-15T12:32:12.908Z,7.47
2019-01-15T12:34:59.540Z,7.33
2019-01-15T12:37:47.755Z,7.97
2019-01-15T12:40:35.321Z,7.70
2019-01-15T12:43:23.667Z,7.43
2019-01-15T12:46:11.095Z,6.63
2019-01-15T12:49:10.884Z,6.65
2019-01-15T12:52:02.280Z,7.37
2019-01-15T12:54:49.006Z,6.95
2019-01-15T12:57:41.143Z,7.00
2019-01-15T13:00:31.513Z,6.70
2019-01-15T13:03:11.967Z,7.30
2019-01-15T13:05:59.160Z,7.30
2019-01-15T13:08:42.878Z,7.20
2019-01-15T13:11:50.002Z,7.00
2019-01-15T13:14:29.164Z,6.07
2019-01-15T13:17:15.810Z,6.13
2019-01-15T13:19:56.544Z,6.53
2019-01-15T13:23:00.158Z,6.93
2019-01-15T13:25:40.745Z,7.30
2019-01-15T13:28:35.500Z,6.75
2019-01-15T13:31:16.499Z,6.03
2019-01-15T13:34:06.006Z,6.13
2019-01-15T13:36:46.430Z,7.23
2019-01-15T13:39:40.691Z,6.47
2019-01-15T13:42:23.519Z,6.30
2019-01-15T13:45:17.754Z,6.83
2019-01-15T13:48:14.760Z,6.67
2019-01-15T13:51:05.934Z,5.90
2019-01-15T13:53:53.269Z,6.40
2019-01-15T13:56:47.817Z,5.90
2019-01-15T13:59:34.507Z,6.20
2019-01-15T14:02:22.183Z,5.95
2019-01-15T14:05:08.868Z,6.53
2019-01-15T14:07:52.792Z,6.30
2019-01-15T14:10:55.955Z,6.37
2019-01-15T14:13:41.559Z,5.60
2019-01-15T14:16:28.463Z,5.93
2019-01-15T14:19:19.737Z,6.07
2019-01-15T14:22:22.848Z,5.47
2019-01-15T14:25:10.270Z,5.57
2019-01-15T14:27:58.455Z,5.87
2019-01-15T14:30:46.703Z,5.40
2019-01-15T14:33:33.215Z,6.10
2019-01-15T14:36:21.447Z,5.77
2019-01-15T14:39:12.720Z,6.13
2019-01-15T14:42:10.027Z,6.10
2019-01-15T14:44:55.147Z,5.90
2019-01-15T14:47:40.997Z,6.55
2019-01-15T14:50:29.189Z,5.25
2019-01-15T14:53:26.312Z,5.30
2019-01-15T14:56:06.445Z,5.80
2019-01-15T14:58:51.788Z,5.50
2019-01-15T15:01:58.148Z,5.00
2019-01-15T15:04:40.856Z,5.58
2019-01-15T15:07:27.717Z,5.70
2019-01-15T15:10:33.865Z,6.03
2019-01-15T15:13:22.774Z,5.40
2019-01-15T15:16:08.161Z,5.50
2019-01-15T15:18:55.867Z,5.22
2019-01-15T15:21:43.167Z,5.22
2019-01-15T15:24:22.742Z,5.87
2019-01-15T15:27:17.083Z,6.08
2019-01-15T15:30:14.211Z,4.73
2019-01-15T15:33:01.077Z,6.03
2019-01-15T15:35:46.265Z,8.67
2019-01-15T15:38:33.014Z,7.70
2019-01-15T15:41:20.389Z,4.80
2019-01-15T15:44:18.547Z,6.23
2019-01-15T15:47:12.835Z,6.10
2019-01-15T15:50:13.206Z,4.70
2019-01-15T15:53:07.241Z,5.20
2019-01-15T15:55:55.566Z,7.50
2019-01-15T15:58:44.617Z,5.50
2019-01-15T16:01:46.295Z,5.53
2019-01-15T16:04:32.517Z,7.10
2019-01-15T16:07:19.458Z,5.80
2019-01-15T16:09:57.667Z,6.30
2019-01-15T16:12:44.014Z,7.40
2019-01-15T16:15:30.858Z,5.80
2019-01-15T16:18:09.579Z,6.50
2019-01-15T16:21:13.711Z,7.50
2019-01-15T16:24:01.556Z,5.43
2019-01-15T16:26:46.849Z,8.05
2019-01-15T16:29:41.552Z,5.25
2019-01-15T16:32:33.019Z,6.77
2019-01-15T16:35:34.163Z,6.00
2019-01-15T16:38:20.639Z,5.62
2019-01-15T16:41:24.569Z,5.43
2019-01-15T16:44:11.126Z,5.80
2019-01-15T16:47:00.130Z,5.57
2019-01-15T16:49:54.912Z,5.00
2019-01-15T16:52:49.441Z,6.70
2019-01-15T16:55:38.831Z,5.60
2019-01-15T16:58:38.875Z,5.17
2019-01-15T17:01:25.212Z,4.87
2019-01-15T17:04:19.980Z,5.30
2019-01-15T17:07:07.995Z,6.03
2019-01-15T17:09:47.152Z,5.23
2019-01-15T17:12:34.310Z,5.47
2019-01-15T17:15:23.749Z,5.63
2019-01-15T17:18:14.969Z,5.60
2019-01-15T17:21:12.189Z,6.10
2019-01-15T17:24:12.582Z,6.60
2019-01-15T17:26:59.591Z,5.90
2019-01-15T17:29:38.418Z,6.77
2019-01-15T17:32:26.611Z,6.03
2019-01-15T17:35:12.493Z,5.85
2019-01-15T17:37:57.816Z,7.03
2019-01-15T17:40:45.079Z,6.67
2019-01-15T17:43:32.455Z,6.70
2019-01-15T17:46:17.943Z,6.50
2019-01-15T17:49:15.660Z,7.33
2019-01-15T17:52:12.518Z,6.80
2019-01-15T17:55:02.968Z,5.97
2019-01-15T17:58:03.065Z,7.12
2019-01-15T18:00:54.152Z,6.60
2019-01-15T18:03:41.210Z,6.40
2019-01-15T18:06:39.801Z,7.63
2019-01-15T18:09:15.876Z,6.83
2019-01-15T18:12:18.997Z,6.85
2019-01-15T18:15:22.342Z,7.00
2019-01-15T18:18:06.395Z,7.08
2019-01-15T18:20:54.559Z,6.53
2019-01-15T18:23:39.772Z,6.30
2019-01-15T18:26:43.660Z,6.57
2019-01-15T18:30:04.791Z,6.83
2019-01-15T18:32:45.917Z,6.47
2019-01-15T18:35:34.144Z,7.17
2019-01-15T18:38:12.140Z,5.83
2019-01-15T18:41:18.292Z,5.95
2019-01-15T18:44:05.175Z,6.70
2019-01-15T18:46:56.241Z,5.83
2019-01-15T18:49:46.872Z,7.20
2019-01-15T18:52:38.127Z,6.30
2019-01-15T18:55:27.770Z,7.47
2019-01-15T18:58:14.564Z,7.90
2019-01-15T19:01:06.017Z,7.30
2019-01-15T19:03:51.920Z,5.67
2019-01-15T19:06:40.127Z,5.87
2019-01-15T19:09:28.119Z,7.00
2019-01-15T19:12:22.069Z,6.30
2019-01-15T19:15:28.259Z,7.33
2019-01-15T19:18:12.587Z,7.37
2019-01-15T19:21:05.038Z,7.23
2019-01-15T19:23:51.875Z,5.90
2019-01-15T19:26:38.773Z,7.22
2019-01-15T19:29:36.357Z,6.90
2019-01-15T19:32:27.568Z,5.97
2019-01-15T19:35:39.105Z,6.50
2019-01-15T19:38:20.220Z,7.10
2019-01-15T19:41:05.000Z,6.20
2019-01-15T19:44:14.458Z,7.55
2019-01-15T19:47:02.828Z,5.37
2019-01-15T19:50:02.693Z,5.22
2019-01-15T19:52:58.063Z,5.62
2019-01-15T19:55:44.998Z,6.53
2019-01-15T19:58:39.878Z,5.85
2019-01-15T20:01:26.720Z,6.22
2019-01-15T20:04:21.001Z,6.00
2019-01-15T20:07:08.100Z,5.42
2019-01-15T20:10:24.494Z,6.45
2019-01-15T20:13:12.249Z,5.70
2019-01-15T20:15:59.850Z,5.63
2019-01-15T20:18:51.674Z,6.63
2019-01-15T20:21:42.704Z,6.93
2019-01-15T20:24:45.842Z,6.63
2019-01-15T20:27:28.905Z,6.17
2019-01-15T20:30:23.482Z,5.60
2019-01-15T20:33:20.912Z,5.93
2019-01-15T20:36:20.907Z,5.90
2019-01-15T20:39:09.465Z,6.70
2019-01-15T20:42:06.937Z,6.03
2019-01-15T20:45:01.337Z,5.40
2019-01-15T20:51:12.023Z,6.93
2019-01-15T20:54:00.534Z,6.83
2019-01-15T20:56:43.662Z,6.28
2019-01-15T20:59:46.579Z,5.67
2019-01-15T21:02:47.008Z,5.93
2019-01-15T21:05:35.518Z,5.70
2019-01-15T21:08:27.924Z,6.17
2019-01-15T21:11:35.474Z,6.40
2019-01-15T21:14:22.249Z,6.13
2019-01-15T21:17:32.701Z,5.33
2019-01-15T21:20:15.079Z,6.40
2019-01-15T21:23:06.307Z,5.35
2019-01-15T21:25:53.427Z,5.33
2019-01-15T21:28:31.839Z,5.17
2019-01-15T21:31:22.728Z,6.05
2019-01-15T21:34:09.664Z,5.00
2019-01-15T21:36:59.689Z,4.67
2019-01-15T21:39:50.180Z,4.90
2019-01-15T21:42:38.467Z,4.67
2019-01-15T21:45:23.002Z,4.63
2019-01-15T21:48:09.952Z,5.10
2019-01-15T21:51:01.241Z,4.80
2019-01-15T21:53:52.867Z,4.23
2019-01-15T21:56:59.933Z,4.30
2019-01-15T21:59:38.908Z,3.60
2019-01-15T22:02:32.880Z,4.50
2019-01-15T22:05:27.295Z,4.60
2019-01-15T22:08:15.589Z,3.67
2019-01-15T22:11:07.044Z,4.37
2019-01-15T22:14:21.396Z,3.80
2019-01-15T22:17:23.382Z,3.72
2019-01-15T22:20:23.937Z,4.40
2019-01-15T22:23:12.845Z,3.95
2019-01-15T22:26:05.103Z,5.27
2019-01-15T22:28:52.563Z,4.67
2019-01-15T22:31:56.567Z,4.50
2019-01-15T22:34:44.009Z,4.60
2019-01-15T22:37:33.716Z,4.67
2019-01-15T22:40:23.680Z,5.40
2019-01-15T22:43:12.106Z,3.50
2019-01-15T22:49:18.855Z,4.50
2019-01-15T22:52:20.547Z,4.67
2019-01-15T22:55:17.235Z,5.00
2019-01-15T22:58:03.967Z,4.43
2019-01-15T23:01:16.334Z,5.17
2019-01-15T23:04:03.168Z,5.07
2019-01-15T23:06:50.618Z,4.87
2019-01-15T23:09:37.608Z,4.90
2019-01-15T23:12:23.054Z,5.30
2019-01-15T23:15:11.840Z,4.57
2019-01-15T23:18:02.828Z,4.97
2019-01-15T23:21:10.665Z,5.10
2019-01-15T23:23:55.835Z,4.33
2019-01-15T23:26:52.986Z,4.60
2019-01-15T23:29:37.507Z,4.27
2019-01-15T23:32:42.572Z,4.23
2019-01-15T23:35:35.579Z,4.12
2019-01-15T23:38:24.610Z,4.22
2019-01-15T23:41:06.105Z,3.70
2019-01-15T23:44:03.559Z,4.03
2019-01-15T23:46:51.894Z,4.33
2019-01-15T23:49:30.044Z,3.90
2019-01-15T23:52:18.495Z,3.95
2019-01-15T23:55:06.995Z,3.70
2019-01-15T23:58:07.207Z,3.60
